Time;durP1;ratioP1;P1;durP2;ratioP2;P2;SDS_P1;SDS_P2;PMS_P1;PMS_P2;Temp;Humidity;BMP_temperature;BMP_pressure;BME280_temperature;BME280_humidity;BME280_pressure;Samples;Min_cycle;Max_cycle;Signal;HPM_P1;HPM_P2
2022/12/30 00:02:20;;;;;;;5.78;2.13;;;;;;;8.98;42.74;100755.06;4971431;28;20550;-72
2022/12/30 00:04:48;;;;;;;5.63;1.40;;;;;;;8.97;42.63;100751.44;4970144;28;20488;-71
2022/12/30 00:07:16;;;;;;;3.78;1.50;;;;;;;8.96;42.40;100755.16;4969643;28;20046;-71
2022/12/30 00:09:45;;;;;;;6.40;1.45;;;;;;;8.97;42.12;100756.03;4971370;28;20141;-72
2022/12/30 00:34:29;;;;;;;5.18;1.40;;;;;;;8.81;42.06;100756.44;5002058;28;20515;-72
2022/12/30 00:36:58;;;;;;;5.00;1.60;;;;;;;8.78;42.57;100753.06;5002155;28;20043;-71
2022/12/30 00:39:26;;;;;;;6.38;1.65;;;;;;;8.79;42.69;100758.41;4970532;28;20047;-71
2022/12/30 00:44:41;;;;;;;6.38;1.73;;;;;;;8.75;42.05;100754.22;4968544;28;20105;-72
2022/12/30 00:47:10;;;;;;;4.95;1.80;;;;;;;8.76;42.27;100753.19;4970670;28;20545;-72
2022/12/30 00:57:55;;;;;;;4.88;1.15;;;;;;;8.69;42.31;100757.44;4970805;28;20563;-71
2022/12/30 01:00:23;;;;;;;4.07;1.35;;;;;;;8.68;42.42;100750.22;4970265;28;20089;-72
2022/12/30 01:02:51;;;;;;;4.15;1.52;;;;;;;8.67;42.53;100753.97;4968661;28;20476;-72
2022/12/30 01:05:19;;;;;;;6.00;1.60;;;;;;;8.67;42.50;100767.63;4969017;28;20046;-72
2022/12/30 01:07:47;;;;;;;3.20;1.08;;;;;;;8.66;42.49;100779.53;4970326;28;20121;-72
2022/12/30 01:10:15;;;;;;;5.60;1.55;;;;;;;8.66;42.58;100771.34;4968688;28;20038;-72
2022/12/30 01:12:43;;;;;;;6.13;2.15;;;;;;;8.65;42.80;100769.59;4970383;28;20637;-72
2022/12/30 01:15:12;;;;;;;7.20;1.90;;;;;;;8.66;42.65;100774.94;4969444;28;20511;-72
2022/12/30 01:17:41;;;;;;;4.20;1.55;;;;;;;8.64;42.74;100782.38;4970438;28;20043;-71
2022/12/30 01:20:10;;;;;;;5.85;1.48;;;;;;;8.65;42.75;100783.22;4969092;28;20057;-71
2022/12/30 01:22:37;;;;;;;6.95;1.60;;;;;;;8.64;42.74;100786.94;4970077;28;20125;-71
2022/12/30 01:25:06;;;;;;;4.00;1.20;;;;;;;8.64;42.62;100792.41;4969787;28;20663;-71
2022/12/30 01:27:34;;;;;;;5.15;1.63;;;;;;;8.62;42.70;100792.53;4968795;28;20046;-71
2022/12/30 01:30:02;;;;;;;6.22;1.58;;;;;;;8.62;43.16;100797.97;4969766;28;20054;-71
2022/12/30 01:32:31;;;;;;;5.22;1.45;;;;;;;8.63;43.07;100796.13;5000547;28;20077;-71
2022/12/30 01:34:59;;;;;;;6.40;1.50;;;;;;;8.61;42.74;100796.25;4969687;28;20046;-71
2022/12/30 01:37:27;;;;;;;3.45;1.20;;;;;;;8.62;42.65;100799.84;4969950;28;20408;-71
2022/12/30 01:39:55;;;;;;;6.55;1.40;;;;;;;8.62;42.76;100799.84;4968843;28;20526;-71
2022/12/30 01:42:25;;;;;;;7.97;1.67;;;;;;;8.62;42.77;100800.72;4969882;28;20051;-70
2022/12/30 01:44:59;;;;;;;6.63;1.88;;;;;;;8.61;42.69;100798.09;4969601;28;20039;-71
2022/12/30 01:47:38;;;;;;;5.32;1.33;;;;;;;8.62;42.91;100797.13;5001032;28;20050;-71
2022/12/30 01:50:17;;;;;;;4.93;1.48;;;;;;;8.60;42.58;100799.97;4969557;28;20397;-70
2022/12/30 01:52:51;;;;;;;6.07;1.60;;;;;;;8.60;42.96;100793.63;4968426;28;20063;-71
2022/12/30 01:55:24;;;;;;;5.93;1.70;;;;;;;8.58;42.83;100799.22;4967567;28;20070;-70
2022/12/30 01:57:54;;;;;;;5.03;1.35;;;;;;;8.57;42.82;100807.53;4968964;28;20062;-71
2022/12/30 02:00:22;;;;;;;7.22;1.70;;;;;;;8.56;42.77;100803.94;4969461;28;20054;-71
2022/12/30 02:02:53;;;;;;;6.55;1.60;;;;;;;8.57;43.05;100802.94;4968312;28;20089;-71
2022/12/30 02:05:24;;;;;;;5.35;1.88;;;;;;;8.56;43.01;100803.94;4969531;28;20054;-71
2022/12/30 02:08:00;;;;;;;5.72;1.50;;;;;;;8.56;43.24;100811.25;4969560;28;20109;-71
2022/12/30 02:10:29;;;;;;;4.45;1.58;;;;;;;8.54;43.16;100811.38;4967358;28;20630;-70
2022/12/30 02:12:58;;;;;;;3.80;1.33;;;;;;;8.53;43.43;100806.03;4968261;28;20039;-71
2022/12/30 02:15:30;;;;;;;5.75;1.45;;;;;;;8.54;43.05;100811.38;4968718;28;20558;-70
2022/12/30 02:18:08;;;;;;;9.65;2.40;;;;;;;8.55;43.23;100806.78;4969098;28;20049;-71
2022/12/30 02:21:12;;;;;;;6.78;1.58;;;;;;;8.53;43.05;100804.16;4967445;28;20113;-71
2022/12/30 02:24:06;;;;;;;3.88;1.45;;;;;;;8.50;43.43;100803.56;4969799;28;20109;-71
2022/12/30 02:26:55;;;;;;;5.10;1.98;;;;;;;8.52;43.11;100804.28;5000736;23;20072;-75
2022/12/30 02:30:06;;;;;;;6.85;1.77;;;;;;;8.51;43.07;100797.09;5008315;28;20119;-74
2022/12/30 02:33:01;;;;;;;3.97;1.70;;;;;;;8.49;43.02;100807.28;4915680;29;20052;-75
2022/12/30 02:35:36;;;;;;;5.28;1.60;;;;;;;8.48;43.16;100808.25;4908834;29;20556;-74
2022/12/30 02:38:16;;;;;;;5.38;1.60;;;;;;;8.48;43.13;100811.88;4966306;28;20057;-75
2022/12/30 02:46:35;;;;;;;7.57;1.70;;;;;;;8.42;43.02;100814.22;4969893;28;20046;-74
2022/12/30 02:49:08;;;;;;;4.28;1.60;;;;;;;8.43;43.21;100819.53;4994948;28;20164;-75
2022/12/30 02:54:24;;;;;;;3.67;1.20;;;;;;;8.39;43.17;100823.50;4990308;28;20802;-75
2022/12/30 02:56:53;;;;;;;4.00;1.45;;;;;;;8.40;43.06;100819.78;4990629;28;20247;-75
2022/12/30 03:05:26;;;;;;;6.88;1.63;;;;;;;8.37;43.34;100805.50;5007619;28;20541;-75
2022/12/30 03:08:01;;;;;;;3.38;1.20;;;;;;;8.35;43.50;100805.63;5004725;28;20035;-75
2022/12/30 03:13:27;;;;;;;5.28;1.30;;;;;;;8.32;43.26;100806.75;4995119;28;20080;-75
2022/12/30 03:16:00;;;;;;;6.55;1.90;;;;;;;8.31;43.18;100809.59;4989353;28;20441;-75
2022/12/30 03:18:30;;;;;;;6.53;1.50;;;;;;;8.30;43.28;100813.31;5007910;28;20041;-75
2022/12/30 03:21:02;;;;;;;6.93;2.05;;;;;;;8.31;43.26;100807.75;4988042;28;20499;-75
2022/12/30 03:29:08;;;;;;;4.95;1.20;;;;;;;8.24;43.10;100783.81;5007704;28;20081;-75
2022/12/30 03:31:36;;;;;;;6.93;1.67;;;;;;;8.21;43.26;100790.38;5004742;28;20125;-74
2022/12/30 03:34:04;;;;;;;6.70;1.55;;;;;;;8.21;43.59;100784.91;5004732;28;20054;-75
2022/12/30 03:36:38;;;;;;;4.10;1.48;;;;;;;8.21;43.33;100784.91;4993299;28;20037;-75
2022/12/30 03:39:11;;;;;;;5.75;1.33;;;;;;;8.21;43.53;100773.16;5010833;28;20068;-75
2022/12/30 03:41:40;;;;;;;8.02;1.42;;;;;;;8.18;43.35;100767.91;4995238;28;20129;-75
2022/12/30 03:44:09;;;;;;;5.10;1.50;;;;;;;8.18;43.50;100771.50;4990335;28;20049;-75
2022/12/30 03:46:37;;;;;;;5.30;1.58;;;;;;;8.16;43.52;100776.25;4987962;28;20526;-75
2022/12/30 03:49:05;;;;;;;6.55;1.50;;;;;;;8.15;43.09;100774.50;5003566;28;20050;-75
2022/12/30 03:51:34;;;;;;;5.13;1.75;;;;;;;8.16;43.43;100765.34;5008852;28;20096;-75
2022/12/30 03:54:02;;;;;;;5.10;1.75;;;;;;;8.14;43.32;100761.84;4992868;28;20038;-74
2022/12/30 03:56:30;;;;;;;4.90;1.40;;;;;;;8.12;43.33;100761.06;5005270;28;20090;-75
2022/12/30 03:58:58;;;;;;;3.80;1.52;;;;;;;8.13;43.26;100761.94;5010415;28;20045;-75
2022/12/30 04:01:26;;;;;;;5.40;1.67;;;;;;;8.11;43.56;100763.91;4990595;28;20133;-75
2022/12/30 04:03:54;;;;;;;4.97;1.30;;;;;;;8.10;43.19;100759.44;4992732;28;20132;-75
2022/12/30 04:06:22;;;;;;;5.25;1.48;;;;;;;8.08;43.19;100758.72;4992210;28;20066;-75
2022/12/30 04:08:51;;;;;;;5.35;1.45;;;;;;;8.08;43.47;100765.03;5006936;28;20048;-75
2022/12/30 04:11:19;;;;;;;4.15;2.00;;;;;;;8.06;43.12;100777.03;5007238;28;20660;-75
2022/12/30 04:13:47;;;;;;;5.97;1.55;;;;;;;8.04;43.14;100779.88;4992939;28;20041;-75
2022/12/30 04:16:15;;;;;;;6.57;1.57;;;;;;;8.02;43.50;100770.94;5005377;28;20141;-75
2022/12/30 04:18:43;;;;;;;5.07;1.45;;;;;;;8.00;43.23;100758.47;4993717;28;20452;-75
2022/12/30 04:21:10;;;;;;;4.47;1.50;;;;;;;8.00;43.54;100761.19;5009637;28;20137;-75
2022/12/30 04:23:38;;;;;;;5.95;1.30;;;;;;;7.98;43.58;100766.75;4992547;28;20046;-75
2022/12/30 04:26:08;;;;;;;3.83;1.30;;;;;;;7.98;43.69;100760.44;5009184;28;20375;-75
2022/12/30 04:28:35;;;;;;;5.70;1.50;;;;;;;7.94;43.68;100755.22;5010436;28;20361;-75
2022/12/30 04:31:03;;;;;;;6.68;1.50;;;;;;;7.92;43.72;100754.47;4992298;28;20253;-75
2022/12/30 04:33:32;;;;;;;4.30;1.42;;;;;;;7.91;43.69;100758.19;4996168;28;20070;-76
2022/12/30 04:36:00;;;;;;;3.80;1.63;;;;;;;7.89;43.68;100754.72;4996614;28;20067;-75
2022/12/30 04:38:27;;;;;;;5.45;1.50;;;;;;;7.89;43.74;100753.84;4992570;28;20059;-75
2022/12/30 04:40:55;;;;;;;5.93;1.88;;;;;;;7.88;43.23;100760.28;5003559;28;20052;-76
2022/12/30 04:43:24;;;;;;;5.50;1.65;;;;;;;7.88;43.36;100754.81;4992040;28;20050;-75
2022/12/30 04:45:52;;;;;;;3.35;1.35;;;;;;;7.84;43.60;100756.94;5007005;28;20502;-76
2022/12/30 04:48:20;;;;;;;4.20;1.40;;;;;;;7.83;43.37;100763.38;5005755;28;20042;-75
2022/12/30 04:50:49;;;;;;;4.53;1.80;;;;;;;7.83;43.63;100773.41;4992693;28;20133;-75
2022/12/30 04:53:16;;;;;;;5.22;1.42;;;;;;;7.81;43.54;100778.97;4991596;28;20141;-75
2022/12/30 04:55:45;;;;;;;4.28;1.40;;;;;;;7.81;43.56;100778.09;4991035;28;20054;-75
2022/12/30 04:58:13;;;;;;;7.57;1.52;;;;;;;7.80;43.52;100776.34;5009424;28;20038;-76
2022/12/30 05:00:42;;;;;;;4.05;1.60;;;;;;;7.82;43.83;100782.56;4991587;28;20064;-76
2022/12/30 05:03:10;;;;;;;5.78;1.60;;;;;;;7.78;43.86;100779.19;4990131;28;20060;-75
2022/12/30 05:05:38;;;;;;;5.38;1.42;;;;;;;7.78;43.85;100781.03;5007460;28;20049;-76
2022/12/30 05:08:06;;;;;;;4.60;2.10;;;;;;;7.78;43.99;100789.22;5002517;28;20041;-76
2022/12/30 05:10:35;;;;;;;8.00;1.80;;;;;;;7.77;43.99;100782.88;5003808;28;20119;-76
2022/12/30 05:13:03;;;;;;;5.57;1.88;;;;;;;7.76;43.83;100781.19;4990765;28;20052;-77
2022/12/30 05:15:32;;;;;;;5.88;1.63;;;;;;;7.76;44.03;100781.19;4986983;28;20053;-76
2022/12/30 05:18:01;;;;;;;6.60;1.55;;;;;;;7.77;44.04;100784.75;5006997;28;20515;-76
2022/12/30 05:20:29;;;;;;;7.38;2.00;;;;;;;7.76;44.22;100783.03;5006984;28;20424;-76
2022/12/30 05:22:57;;;;;;;6.43;2.00;;;;;;;7.74;44.16;100785.88;5007949;28;20041;-76
2022/12/30 05:28:10;;;;;;;5.80;2.00;;;;;;;7.72;43.86;100778.78;4990408;28;20078;-76
2022/12/30 05:30:38;;;;;;;4.00;1.60;;;;;;;7.72;43.99;100787.84;5004645;28;20046;-76
2022/12/30 05:33:07;;;;;;;3.92;1.58;;;;;;;7.72;44.03;100786.97;4983449;28;20150;-76
2022/12/30 05:35:35;;;;;;;5.72;1.55;;;;;;;7.68;43.78;100799.97;4989155;28;20339;-76
2022/12/30 05:38:03;;;;;;;5.65;1.50;;;;;;;7.68;44.08;100785.47;4990002;28;20450;-76
2022/12/30 05:40:31;;;;;;;4.47;1.45;;;;;;;7.65;43.99;100786.56;5005660;28;20037;-76
2022/12/30 05:42:59;;;;;;;6.65;1.58;;;;;;;7.65;43.96;100788.44;5007866;28;20037;-76
2022/12/30 05:45:26;;;;;;;5.40;1.73;;;;;;;7.63;43.88;100788.53;5002115;28;20086;-76
2022/12/30 05:47:54;;;;;;;5.38;1.80;;;;;;;7.62;43.78;100783.19;5003092;28;20104;-76
2022/12/30 05:50:24;;;;;;;7.13;1.90;;;;;;;7.62;44.17;100772.31;4994567;28;20430;-76
2022/12/30 05:52:55;;;;;;;5.25;1.80;;;;;;;7.57;43.87;100775.41;4991204;28;20049;-76
2022/12/30 05:55:23;;;;;;;4.43;1.60;;;;;;;7.57;43.99;100779.00;4986055;28;20103;-76
2022/12/30 05:57:57;;;;;;;6.13;1.80;;;;;;;7.55;44.10;100772.78;5004855;28;20093;-76
2022/12/30 06:00:25;;;;;;;4.03;1.50;;;;;;;7.54;43.96;100779.22;5007577;28;20108;-76
2022/12/30 06:02:53;;;;;;;4.88;1.60;;;;;;;7.52;43.83;100775.72;4991094;28;20229;-75
2022/12/30 06:05:21;;;;;;;3.42;1.65;;;;;;;7.51;43.95;100776.75;4987345;28;20046;-76
2022/12/30 06:07:50;;;;;;;4.22;1.52;;;;;;;7.51;43.75;100775.88;5008488;28;20030;-76
2022/12/30 06:10:18;;;;;;;5.15;1.50;;;;;;;7.48;44.08;100770.66;4990827;28;20042;-76
2022/12/30 06:12:46;;;;;;;5.43;1.63;;;;;;;7.47;44.21;100768.91;5008973;28;20046;-75
2022/12/30 06:15:14;;;;;;;5.45;1.63;;;;;;;7.45;44.45;100762.69;4987486;28;20046;-76
2022/12/30 06:17:42;;;;;;;5.60;1.75;;;;;;;7.43;44.10;100756.53;4979253;28;20161;-76
2022/12/30 06:20:11;;;;;;;6.75;1.95;;;;;;;7.43;44.48;100751.94;4982751;28;20046;-76
2022/12/30 06:22:38;;;;;;;7.03;1.67;;;;;;;7.42;44.16;100746.63;5003484;28;20128;-76
2022/12/30 06:25:09;;;;;;;6.40;1.92;;;;;;;7.42;44.19;100749.34;4988181;28;20046;-76
2022/12/30 06:27:37;;;;;;;4.95;1.90;;;;;;;7.39;44.23;100747.72;4981840;28;20075;-76
2022/12/30 06:30:05;;;;;;;5.63;1.60;;;;;;;7.38;44.23;100756.84;5007351;28;20400;-76
2022/12/30 06:32:33;;;;;;;7.03;1.70;;;;;;;7.37;44.35;100748.81;5007217;28;20092;-75
2022/12/30 06:35:01;;;;;;;5.13;1.60;;;;;;;7.35;44.27;100750.81;5001976;28;20035;-75
2022/12/30 06:37:29;;;;;;;4.07;1.63;;;;;;;7.33;44.26;100750.91;4990626;28;20376;-75
2022/12/30 06:39:57;;;;;;;6.45;1.58;;;;;;;7.31;44.60;100744.72;5003373;28;20380;-75
2022/12/30 06:42:26;;;;;;;5.60;1.70;;;;;;;7.31;44.29;100749.28;4986028;28;20064;-75
2022/12/30 06:44:54;;;;;;;4.22;1.65;;;;;;;7.28;44.53;100738.59;4978372;28;20415;-76
2022/12/30 06:47:22;;;;;;;5.03;1.50;;;;;;;7.28;44.42;100741.34;5005581;28;20120;-76
2022/12/30 06:49:50;;;;;;;5.00;1.80;;;;;;;7.26;44.67;100741.47;4990056;28;20030;-76
2022/12/30 06:52:18;;;;;;;4.22;1.52;;;;;;;7.25;44.61;100738.88;5010954;28;20506;-76
2022/12/30 06:54:45;;;;;;;5.57;1.63;;;;;;;7.24;44.64;100729.81;4981835;28;20042;-76
2022/12/30 06:57:13;;;;;;;5.00;1.58;;;;;;;7.26;44.82;100727.00;5007279;28;20512;-75
2022/12/30 06:59:43;;;;;;;4.65;1.55;;;;;;;7.26;44.76;100727.88;5007473;28;20038;-75
2022/12/30 07:02:12;;;;;;;4.57;1.45;;;;;;;7.24;44.64;100710.78;4989073;28;20058;-76
2022/12/30 07:04:39;;;;;;;5.10;2.10;;;;;;;7.25;44.53;100703.47;5002866;28;20060;-76
2022/12/30 07:07:07;;;;;;;4.97;1.92;;;;;;;7.25;44.63;100701.63;4992755;28;20108;-75
2022/12/30 07:09:35;;;;;;;4.38;1.60;;;;;;;7.25;44.77;100704.34;5009850;28;20317;-75
2022/12/30 07:12:03;;;;;;;3.65;1.33;;;;;;;7.25;44.83;100696.19;5010724;28;20094;-75
2022/12/30 07:14:31;;;;;;;5.78;1.63;;;;;;;7.25;44.78;100704.34;4982142;28;20050;-75
2022/12/30 07:17:01;;;;;;;5.57;1.63;;;;;;;7.25;44.85;100706.19;4983749;28;20104;-74
2022/12/30 07:19:28;;;;;;;4.65;1.38;;;;;;;7.24;44.75;100701.72;5003024;28;20049;-73
2022/12/30 07:21:56;;;;;;;5.97;1.90;;;;;;;7.24;44.91;100694.44;4985823;28;20077;-74
2022/12/30 07:24:24;;;;;;;5.05;1.40;;;;;;;7.24;44.88;100694.44;5002952;28;20057;-75
2022/12/30 07:26:52;;;;;;;5.28;1.33;;;;;;;7.25;45.12;100703.47;4999796;28;20041;-73
2022/12/30 07:29:21;;;;;;;5.25;1.45;;;;;;;7.25;45.28;100695.31;4987409;28;20053;-74
2022/12/30 07:31:49;;;;;;;4.43;1.63;;;;;;;7.26;44.77;100703.38;4996326;28;20053;-74
2022/12/30 07:34:18;;;;;;;5.10;1.60;;;;;;;7.29;44.74;100688.63;4978782;28;20045;-73
2022/12/30 07:36:46;;;;;;;5.85;1.60;;;;;;;7.27;44.87;100696.91;4998753;28;20042;-72
2022/12/30 07:39:14;;;;;;;4.20;1.50;;;;;;;7.28;45.03;100695.94;5006360;28;20773;-72
2022/12/30 07:41:42;;;;;;;3.65;1.30;;;;;;;7.28;44.84;100685.03;4987822;28;20422;-73
2022/12/30 07:44:11;;;;;;;3.72;1.20;;;;;;;7.29;44.87;100681.34;4982143;28;20046;-73
2022/12/30 07:46:38;;;;;;;5.40;1.60;;;;;;;7.29;44.87;100675.88;4999449;28;20109;-74
2022/12/30 07:49:06;;;;;;;4.95;1.88;;;;;;;7.30;44.92;100666.75;5002390;28;20042;-73
2022/12/30 07:51:36;;;;;;;4.05;1.40;;;;;;;7.32;45.20;100675.66;5000706;28;20038;-74
2022/12/30 07:54:04;;;;;;;5.78;1.45;;;;;;;7.31;45.37;100667.59;5002265;28;20414;-72
2022/12/30 07:56:34;;;;;;;3.83;1.40;;;;;;;7.31;45.21;100671.19;5001047;28;20593;-73
2022/12/30 07:59:03;;;;;;;3.50;1.48;;;;;;;7.31;45.23;100668.47;5004761;28;20120;-74
2022/12/30 08:01:31;;;;;;;5.22;1.60;;;;;;;7.33;45.25;100671.97;5005252;28;20120;-76
2022/12/30 08:03:59;;;;;;;4.55;1.50;;;;;;;7.34;45.21;100665.53;5002082;28;20057;-72
2022/12/30 08:06:49;;;;;;;3.47;1.40;;;;;;;7.35;45.41;100663.69;5003036;28;20050;-73
2022/12/30 08:09:16;;;;;;;3.10;1.30;;;;;;;7.34;45.14;100656.50;4982384;28;20054;-73
2022/12/30 08:11:44;;;;;;;5.03;1.58;;;;;;;7.35;45.17;100650.06;4991001;28;20046;-72
2022/12/30 08:14:12;;;;;;;4.22;1.50;;;;;;;7.35;45.56;100650.06;4981805;28;20060;-72
2022/12/30 08:16:40;;;;;;;4.93;1.42;;;;;;;7.36;45.61;100635.44;4982682;28;20687;-72
2022/12/30 08:19:08;;;;;;;2.85;1.33;;;;;;;7.36;45.16;100641.75;4982927;28;20117;-72
2022/12/30 08:21:36;;;;;;;3.67;1.52;;;;;;;7.37;45.46;100638.06;5002547;28;20535;-72
2022/12/30 08:24:06;;;;;;;3.92;1.30;;;;;;;7.40;45.66;100637.81;5004008;28;20565;-73
2022/12/30 08:26:34;;;;;;;3.97;1.30;;;;;;;7.40;45.89;100626.94;5023021;23;20466;-68
2022/12/30 08:29:02;;;;;;;6.75;1.38;;;;;;;7.41;45.63;100633.25;5022157;28;20033;-68
2022/12/30 08:31:30;;;;;;;2.92;1.35;;;;;;;7.43;45.66;100629.44;4989519;28;20041;-68
2022/12/30 08:33:58;;;;;;;3.38;1.30;;;;;;;7.44;45.32;100620.25;4997097;28;20049;-69
2022/12/30 08:36:28;;;;;;;4.35;1.55;;;;;;;7.46;45.76;100629.16;4997278;28;20473;-69
2022/12/30 08:39:01;;;;;;;5.50;1.42;;;;;;;7.48;45.58;100634.50;4998236;28;20043;-69
2022/12/30 08:41:32;;;;;;;3.92;1.33;;;;;;;7.47;45.70;100620.00;5005046;28;20045;-69
2022/12/30 08:44:02;;;;;;;5.60;2.10;;;;;;;7.47;45.55;100606.41;4987046;28;20056;-68
2022/12/30 08:46:32;;;;;;;5.18;1.27;;;;;;;7.50;45.58;100600.72;4983606;28;20045;-69
2022/12/30 08:49:00;;;;;;;3.53;1.50;;;;;;;7.50;45.55;100603.44;5001384;28;20031;-69
2022/12/30 08:51:28;;;;;;;4.60;1.60;;;;;;;7.51;45.78;100586.13;4991112;28;20061;-73
2022/12/30 08:53:56;;;;;;;5.13;1.55;;;;;;;7.51;45.62;100583.41;4994298;28;20045;-69
2022/12/30 08:56:27;;;;;;;3.40;1.42;;;;;;;7.53;45.61;100578.69;5003054;28;20490;-69
2022/12/30 08:58:57;;;;;;;3.47;1.55;;;;;;;7.55;45.57;100581.28;5000270;28;20050;-69
2022/12/30 09:01:27;;;;;;;5.25;1.60;;;;;;;7.54;45.73;100572.25;5002974;28;20048;-67
2022/12/30 09:03:56;;;;;;;3.90;1.30;;;;;;;7.56;45.71;100572.13;5002333;28;20615;-68
2022/12/30 09:06:25;;;;;;;4.03;1.55;;;;;;;7.60;45.95;100564.59;5004288;28;20057;-67
2022/12/30 09:08:53;;;;;;;4.93;1.35;;;;;;;7.60;45.72;100565.44;5008619;28;20038;-68
2022/12/30 09:11:23;;;;;;;4.32;1.42;;;;;;;7.64;45.62;100563.34;5005085;28;20410;-69
2022/12/30 09:13:51;;;;;;;3.97;1.40;;;;;;;7.65;45.83;100554.19;4988911;28;20060;-68
2022/12/30 09:16:29;;;;;;;5.35;1.70;;;;;;;7.68;46.06;100549.38;4978073;28;20049;-69
2022/12/30 09:18:57;;;;;;;2.80;1.27;;;;;;;7.69;45.66;100544.75;4976947;28;20471;-70
2022/12/30 09:21:26;;;;;;;4.68;1.52;;;;;;;7.73;45.86;100541.69;4987799;28;20502;-72
2022/12/30 09:23:54;;;;;;;5.30;1.40;;;;;;;7.76;46.19;100549.63;4975322;28;20101;-78
2022/12/30 09:26:25;;;;;;;6.43;1.55;;;;;;;7.78;45.93;100544.91;4977653;28;20045;-69
2022/12/30 09:28:54;;;;;;;5.13;1.73;;;;;;;7.81;46.13;100544.66;4992130;28;20411;-69
2022/12/30 09:31:22;;;;;;;5.22;1.33;;;;;;;7.85;45.68;100539.81;4992266;28;20513;-70
2022/12/30 09:33:55;;;;;;;3.85;1.48;;;;;;;7.90;45.89;100532.16;4990445;28;20398;-69
2022/12/30 09:36:24;;;;;;;3.97;1.50;;;;;;;7.90;45.83;100526.69;4998629;28;20062;-69
2022/12/30 09:38:52;;;;;;;5.18;1.30;;;;;;;7.92;45.90;100511.09;5000206;28;20038;-69
2022/12/30 09:44:25;;;;;;;3.08;1.33;;;;;;;8.00;46.16;100511.34;4984113;28;20376;-70
2022/12/30 09:47:04;;;;;;;4.40;1.67;;;;;;;8.04;45.75;100499.16;5002534;28;20115;-69
2022/12/30 09:49:40;;;;;;;2.95;1.40;;;;;;;8.07;45.75;100489.88;4993903;28;20121;-70
2022/12/30 09:52:23;;;;;;;2.80;1.30;;;;;;;8.09;45.67;100487.91;4994273;28;20076;-70
2022/12/30 09:54:54;;;;;;;4.18;1.17;;;;;;;8.10;45.99;100473.25;5006651;28;20045;-71
2022/12/30 09:57:32;;;;;;;3.20;1.20;;;;;;;8.14;45.98;100482.94;4988802;28;20107;-70
2022/12/30 10:00:07;;;;;;;2.95;1.13;;;;;;;8.17;45.92;100466.34;5005490;28;20096;-71
2022/12/30 10:02:54;;;;;;;4.55;1.13;;;;;;;8.21;45.54;100470.53;4989325;28;20155;-70
2022/12/30 10:05:29;;;;;;;;;;;;;;;7.98;46.34;100458.81;5006807;28;20038;-70
2022/12/30 10:08:03;;;;;;;2.70;0.93;;;;;;;8.24;46.32;100465.72;5006063;28;20314;-70
2022/12/30 10:10:38;;;;;;;4.85;1.08;;;;;;;8.31;45.98;100453.28;4989250;28;20048;-70
2022/12/30 10:13:12;;;;;;;3.17;1.00;;;;;;;8.38;45.86;100447.31;4998702;28;20113;-70
2022/12/30 10:15:53;;;;;;;3.90;1.10;;;;;;;8.44;46.15;100441.31;5006761;28;20633;-70
2022/12/30 10:18:38;;;;;;;2.40;1.25;;;;;;;8.50;45.35;100440.81;5006069;28;20052;-70
2022/12/30 10:21:19;;;;;;;4.43;1.00;;;;;;;8.55;45.57;100441.28;5007185;28;20046;-71
2022/12/30 10:24:03;;;;;;;3.92;1.30;;;;;;;8.60;45.98;100428.97;5010245;28;20562;-71
2022/12/30 10:26:41;;;;;;;4.30;1.30;;;;;;;8.66;45.36;100423.00;5010714;28;20176;-70
2022/12/30 10:29:15;;;;;;;3.95;1.13;;;;;;;8.69;45.36;100411.81;5011098;28;20053;-70
2022/12/30 10:31:46;;;;;;;4.55;1.10;;;;;;;8.73;45.41;100409.69;5003838;28;20074;-71
2022/12/30 10:34:16;;;;;;;3.47;1.30;;;;;;;8.78;45.38;100428.38;5002326;28;20120;-70
2022/12/30 10:36:51;;;;;;;4.47;1.15;;;;;;;8.83;45.44;100417.94;5008592;28;20510;-63
2022/12/30 10:39:22;;;;;;;4.28;1.40;;;;;;;8.86;45.37;100420.38;5006223;28;20495;-77
2022/12/30 10:42:05;;;;;;;3.20;1.08;;;;;;;8.91;45.43;100415.41;5005454;28;20081;-75
2022/12/30 10:44:45;;;;;;;2.85;0.90;;;;;;;8.91;45.57;100415.41;4999555;28;20068;-75
2022/12/30 10:47:30;;;;;;;3.42;1.20;;;;;;;8.96;45.08;100432.22;4988184;28;20072;-74
2022/12/30 10:50:19;;;;;;;2.47;0.77;;;;;;;8.99;45.17;100402.81;4989756;28;20065;-74
2022/12/30 10:52:49;;;;;;;3.20;1.00;;;;;;;9.01;45.21;100405.38;5005082;28;20560;-75
2022/12/30 10:55:24;;;;;;;3.33;1.13;;;;;;;9.02;45.11;100386.16;5007965;28;20168;-73
2022/12/30 10:57:57;;;;;;;4.53;1.20;;;;;;;9.05;45.12;100377.69;5007615;28;20042;-74
2022/12/30 11:00:25;;;;;;;4.10;1.17;;;;;;;9.06;45.35;100375.84;4990176;28;20069;-74
2022/12/30 11:02:57;;;;;;;3.00;1.10;;;;;;;9.09;44.95;100365.50;5009646;28;20080;-76
2022/12/30 11:05:34;;;;;;;2.50;1.10;;;;;;;9.11;44.81;100357.16;5008690;28;20097;-75
2022/12/30 11:08:08;;;;;;;3.88;1.33;;;;;;;9.12;44.88;100345.25;5008058;28;20474;-75
2022/12/30 11:10:35;;;;;;;2.20;1.00;;;;;;;9.11;45.21;100343.53;4993564;28;20405;-76
2022/12/30 11:15:58;;;;;;;2.58;0.90;;;;;;;9.12;45.24;100306.16;5003647;28;20050;-78
2022/12/30 11:18:29;;;;;;;3.90;1.02;;;;;;;9.14;45.07;100324.16;5009939;28;20038;-80
2022/12/30 11:20:59;;;;;;;3.45;1.15;;;;;;;9.14;44.96;100304.16;4991464;28;20073;-78
2022/12/30 11:23:32;;;;;;;2.40;1.30;;;;;;;9.15;44.53;100309.50;5001852;28;20046;-71
2022/12/30 11:26:01;;;;;;;;;;;;;;;8.87;45.22;100289.28;4986848;28;20046;-75
2022/12/30 11:28:35;;;;;;;1.63;1.10;;;;;;;9.10;44.96;100293.50;4990960;28;19922;-76
2022/12/30 11:31:07;;;;;;;3.60;1.10;;;;;;;9.12;44.53;100284.31;5004308;28;20056;-75
2022/12/30 11:33:38;;;;;;;4.65;1.65;;;;;;;9.10;44.88;100284.47;5002466;28;20487;-74
2022/12/30 11:36:19;;;;;;;1.92;1.13;;;;;;;9.13;44.50;100286.06;5010314;28;20046;-74
2022/12/30 11:38:50;;;;;;;4.03;1.40;;;;;;;9.11;44.66;100283.47;5007060;28;20037;-75
2022/12/30 11:41:27;;;;;;;2.40;1.17;;;;;;;9.11;44.47;100269.81;5007314;28;20049;-79
2022/12/30 11:44:13;;;;;;;2.88;1.05;;;;;;;9.10;44.13;100254.44;5005421;28;20053;-78
2022/12/30 11:46:44;;;;;;;3.67;1.52;;;;;;;9.07;44.43;100241.09;5003146;28;20100;-78
2022/12/30 11:49:27;;;;;;;4.57;1.50;;;;;;;9.09;44.19;100228.13;5010080;28;20402;-76
2022/12/30 11:51:57;;;;;;;3.38;1.30;;;;;;;9.05;44.73;100213.91;5010104;28;20097;-77
2022/12/30 11:54:31;;;;;;;3.58;1.30;;;;;;;9.07;44.69;100198.28;4994307;28;20448;-75
2022/12/30 11:57:02;;;;;;;3.13;1.40;;;;;;;9.04;44.79;100190.34;5010383;28;20045;-75
2022/12/30 11:59:33;;;;;;;4.85;1.48;;;;;;;9.05;44.64;100180.31;5008518;28;20064;-76
2022/12/30 12:02:06;;;;;;;3.30;1.30;;;;;;;9.05;44.31;100174.84;5000690;28;20664;-75
2022/12/30 12:04:37;;;;;;;3.75;1.92;;;;;;;9.03;44.37;100166.78;4991509;28;20042;-76
2022/12/30 12:07:19;;;;;;;4.20;1.50;;;;;;;9.03;44.18;100161.34;5006411;28;20072;-76
2022/12/30 12:09:53;;;;;;;4.57;1.50;;;;;;;9.02;44.30;100139.63;5010214;28;20378;-75
2022/12/30 12:12:25;;;;;;;3.17;1.38;;;;;;;9.01;44.47;100138.78;5010261;28;20516;-76
2022/12/30 12:15:05;;;;;;;2.53;1.25;;;;;;;9.01;44.31;100127.84;5006380;28;20049;-75
2022/12/30 12:17:43;;;;;;;3.97;1.38;;;;;;;9.00;44.03;100136.22;5007175;28;20080;-74
2022/12/30 12:20:20;;;;;;;3.50;1.30;;;;;;;9.00;44.26;100130.75;5009071;28;20125;-75
2022/12/30 12:23:16;;;;;;;3.30;1.33;;;;;;;8.98;44.21;100133.63;5010979;28;20037;-75
2022/12/30 12:25:57;;;;;;;2.30;1.00;;;;;;;9.00;44.55;100115.22;5008862;28;20078;-74
2022/12/30 12:28:31;;;;;;;5.15;1.25;;;;;;;8.98;44.48;100100.88;5000987;28;20034;-76
2022/12/30 12:31:32;;;;;;;2.42;1.27;;;;;;;9.00;44.47;100095.28;5003809;28;20037;-75
2022/12/30 12:34:11;;;;;;;2.85;1.30;;;;;;;8.99;44.34;100086.22;4991997;28;20057;-77
2022/12/30 12:36:49;;;;;;;3.47;1.13;;;;;;;9.01;44.48;100072.41;4998571;28;20036;-78
2022/12/30 12:39:29;;;;;;;2.30;1.30;;;;;;;9.02;44.57;100057.75;4984841;28;20065;-77
2022/12/30 12:42:06;;;;;;;4.15;1.40;;;;;;;9.02;44.59;100046.84;5004237;28;20041;-76
2022/12/30 12:45:01;;;;;;;3.50;1.50;;;;;;;9.01;44.61;100062.34;5004581;28;20092;-76
2022/12/30 12:47:59;;;;;;;4.30;1.38;;;;;;;9.00;44.05;100054.31;4988421;28;20042;-75
2022/12/30 12:50:45;;;;;;;3.10;1.30;;;;;;;9.03;44.09;100040.38;4994499;28;20038;-73
2022/12/30 12:53:30;;;;;;;4.47;1.42;;;;;;;9.04;44.54;100040.25;5006486;28;20045;-74
2022/12/30 12:56:27;;;;;;;3.88;1.30;;;;;;;9.04;44.66;100023.00;5004064;28;20045;-74
2022/12/30 12:59:12;;;;;;;4.43;1.33;;;;;;;9.05;43.95;100014.66;4996373;28;20144;-73
2022/12/30 13:01:47;;;;;;;5.00;1.30;;;;;;;9.05;44.63;100013.81;5001318;28;20132;-74